createdAt,value
2022-09-29T00:00:56.870Z,5.30
2022-09-29T00:06:03.548Z,5.10
2022-09-29T00:11:10.554Z,5.00
2022-09-29T00:16:16.808Z,5.20
2022-09-29T00:21:22.549Z,5.10
2022-09-29T00:26:28.181Z,5.20
2022-09-29T00:31:34.985Z,5.30
2022-09-29T00:36:41.415Z,5.40
2022-09-29T00:41:47.508Z,5.00
2022-09-29T00:46:58.566Z,4.80
2022-09-29T00:52:06.935Z,4.90
2022-09-29T00:57:14.791Z,5.00
2022-09-29T01:02:21.226Z,4.50
2022-09-29T01:07:27.822Z,4.10
2022-09-29T01:12:33.232Z,4.10
2022-09-29T01:17:38.845Z,4.20
2022-09-29T01:22:47.841Z,4.00
2022-09-29T01:28:18.495Z,4.10
2022-09-29T01:33:32.153Z,4.30
2022-09-29T01:38:40.690Z,4.10
2022-09-29T01:44:07.274Z,3.80
2022-09-29T01:49:15.208Z,3.90
2022-09-29T01:54:29.041Z,4.00
2022-09-29T01:59:39.920Z,4.00
2022-09-29T02:04:50.829Z,3.80
2022-09-29T02:09:59.501Z,3.80
2022-09-29T02:15:07.782Z,3.50
2022-09-29T02:20:15.401Z,3.70
2022-09-29T02:25:21.332Z,3.60
2022-09-29T02:30:26.752Z,3.60
2022-09-29T02:35:34.956Z,3.50
2022-09-29T02:40:52.253Z,3.50
2022-09-29T02:46:21.524Z,3.50
2022-09-29T02:51:33.187Z,3.00
2022-09-29T02:56:47.553Z,3.30
2022-09-29T03:01:55.471Z,3.40
2022-09-29T03:07:00.731Z,3.50
2022-09-29T03:12:05.940Z,3.60
2022-09-29T03:17:11.736Z,3.50
2022-09-29T03:22:16.547Z,3.40
2022-09-29T03:27:21.771Z,3.10
2022-09-29T03:32:26.987Z,3.00
2022-09-29T03:37:32.693Z,3.20
2022-09-29T03:42:38.277Z,3.20
2022-09-29T03:47:44.088Z,3.10
2022-09-29T03:52:48.956Z,3.20
2022-09-29T03:57:54.056Z,2.70
2022-09-29T04:03:00.034Z,2.80
2022-09-29T04:08:07.018Z,2.80
2022-09-29T04:13:16.581Z,2.70
2022-09-29T04:18:20.888Z,2.30
2022-09-29T04:23:25.815Z,2.50
2022-09-29T04:28:34.003Z,2.80
2022-09-29T04:33:39.780Z,3.10
2022-09-29T04:38:45.506Z,3.00
2022-09-29T04:43:50.818Z,3.30
2022-09-29T04:48:56.068Z,3.20
2022-09-29T04:54:01.050Z,3.00
2022-09-29T04:59:06.338Z,3.10
2022-09-29T05:04:13.975Z,3.10
2022-09-29T05:09:21.635Z,3.10
2022-09-29T05:14:24.946Z,3.10
2022-09-29T05:19:32.175Z,3.20
2022-09-29T05:24:37.889Z,3.20
2022-09-29T05:29:42.952Z,3.00
2022-09-29T05:34:47.878Z,3.10
2022-09-29T05:39:52.704Z,3.10
2022-09-29T05:44:58.068Z,3.20
2022-09-29T05:50:03.775Z,3.30
2022-09-29T05:55:11.384Z,3.30
2022-09-29T06:00:18.217Z,3.20
2022-09-29T06:05:24.175Z,3.60
2022-09-29T06:10:29.878Z,3.70
2022-09-29T06:15:34.791Z,4.00
2022-09-29T06:20:40.688Z,4.20
2022-09-29T06:25:45.571Z,4.30
2022-09-29T06:30:50.445Z,4.50
2022-09-29T06:36:13.576Z,4.80
2022-09-29T06:41:19.501Z,4.80
2022-09-29T06:46:27.422Z,4.90
2022-09-29T06:51:43.484Z,5.30
2022-09-29T06:56:39.770Z,5.60
2022-09-29T07:01:46.507Z,6.00
2022-09-29T07:06:52.149Z,6.70
2022-09-29T07:11:58.156Z,7.10
2022-09-29T07:17:03.508Z,7.50
2022-09-29T07:22:09.855Z,8.10
2022-09-29T07:27:15.345Z,8.60
2022-09-29T07:32:27.870Z,9.10
2022-09-29T07:37:29.842Z,9.60
2022-09-29T07:42:35.027Z,9.80
2022-09-29T07:47:40.291Z,10.20
2022-09-29T07:52:46.227Z,10.50
2022-09-29T07:57:52.028Z,10.80
2022-09-29T08:02:57.996Z,10.90
2022-09-29T08:08:05.374Z,11.40
2022-09-29T08:13:11.235Z,11.80
2022-09-29T08:18:16.964Z,11.90
2022-09-29T08:23:23.527Z,12.30
2022-09-29T08:28:32.331Z,12.60
2022-09-29T08:33:38.030Z,12.60
2022-09-29T08:38:46.750Z,12.80
2022-09-29T08:43:54.991Z,13.10
2022-09-29T08:49:04.328Z,13.70
2022-09-29T08:54:16.647Z,13.50
2022-09-29T08:59:24.973Z,13.60
2022-09-29T09:04:44.952Z,13.50
2022-09-29T09:10:18.192Z,13.10
2022-09-29T09:15:26.688Z,12.60
2022-09-29T09:20:55.256Z,12.80
2022-09-29T09:26:05.468Z,12.40
2022-09-29T09:31:39.367Z,12.30
2022-09-29T09:37:01.422Z,12.30
2022-09-29T09:42:00.213Z,12.00
2022-09-29T09:47:16.748Z,11.90
2022-09-29T09:52:48.047Z,11.80
2022-09-29T09:57:56.129Z,11.80
2022-09-29T10:03:04.968Z,11.80
2022-09-29T10:08:29.990Z,12.10
2022-09-29T10:13:35.039Z,12.10
2022-09-29T10:18:46.828Z,12.30
2022-09-29T10:23:53.912Z,12.20
2022-09-29T10:29:05.419Z,12.00
2022-09-29T10:34:20.521Z,12.20
2022-09-29T10:39:41.256Z,12.80
2022-09-29T10:45:08.042Z,13.40
2022-09-29T10:50:19.681Z,13.30
2022-09-29T10:55:28.030Z,12.50
2022-09-29T11:00:39.421Z,13.30
2022-09-29T11:06:02.341Z,12.30
2022-09-29T11:11:22.866Z,12.10
2022-09-29T11:16:37.488Z,11.90
2022-09-29T11:28:16.302Z,11.80
2022-09-29T11:33:24.312Z,11.70
2022-09-29T11:38:44.479Z,12.00
2022-09-29T11:44:03.782Z,12.40
2022-09-29T11:49:30.462Z,12.30
2022-09-29T11:54:41.204Z,12.20
2022-09-29T12:00:05.544Z,12.50
2022-09-29T12:05:26.438Z,12.40
2022-09-29T12:10:51.158Z,12.70
2022-09-29T12:16:05.932Z,12.70
2022-09-29T12:21:17.597Z,12.30
2022-09-29T12:26:25.269Z,12.40
2022-09-29T12:31:46.870Z,12.30
2022-09-29T12:37:05.680Z,12.40
2022-09-29T12:42:20.013Z,12.40
2022-09-29T12:47:43.010Z,12.40
2022-09-29T12:52:55.981Z,12.40
2022-09-29T12:58:05.286Z,12.50
2022-09-29T13:03:19.661Z,12.50
2022-09-29T13:08:48.885Z,12.60
2022-09-29T13:14:14.747Z,12.50
2022-09-29T13:19:52.470Z,12.60
2022-09-29T13:24:52.020Z,12.60
2022-09-29T13:29:57.463Z,12.80
2022-09-29T13:35:03.034Z,12.60
2022-09-29T13:40:11.682Z,12.50
2022-09-29T13:45:19.689Z,12.60
2022-09-29T13:50:48.547Z,12.50
2022-09-29T13:56:05.196Z,12.70
2022-09-29T14:01:15.500Z,12.50
2022-09-29T14:06:43.489Z,12.70
2022-09-29T14:11:41.372Z,12.50
2022-09-29T14:17:10.938Z,12.40
2022-09-29T14:22:33.977Z,12.40
2022-09-29T14:28:01.410Z,12.40
2022-09-29T14:33:18.410Z,12.30
2022-09-29T14:51:36.145Z,12.90
2022-09-29T14:56:47.031Z,12.60
2022-09-29T15:02:12.294Z,12.50
2022-09-29T15:07:26.616Z,12.30
2022-09-29T15:12:33.656Z,12.10
2022-09-29T15:17:54.099Z,12.40
2022-09-29T15:23:33.740Z,12.40
2022-09-29T15:28:43.069Z,12.30
2022-09-29T15:33:51.145Z,12.10
2022-09-29T15:39:33.391Z,12.00
2022-09-29T15:44:38.833Z,11.70
2022-09-29T15:49:51.452Z,11.70
2022-09-29T15:54:58.921Z,11.50
2022-09-29T16:00:06.501Z,10.80
2022-09-29T16:05:16.006Z,10.90
2022-09-29T16:10:24.302Z,10.80
2022-09-29T16:15:32.324Z,10.60
2022-09-29T16:20:38.757Z,10.40
2022-09-29T16:25:44.646Z,10.20
2022-09-29T16:30:55.958Z,9.90
2022-09-29T16:36:07.172Z,9.10
2022-09-29T16:41:41.196Z,9.20
2022-09-29T16:46:52.809Z,9.20
2022-09-29T16:52:02.319Z,9.00
2022-09-29T16:57:13.864Z,8.70
2022-09-29T17:02:19.655Z,8.70
2022-09-29T17:07:27.816Z,8.60
2022-09-29T17:12:33.555Z,8.70
2022-09-29T17:17:38.415Z,8.30
2022-09-29T17:22:45.588Z,8.50
2022-09-29T17:28:09.267Z,8.60
2022-09-29T17:33:17.101Z,8.60
2022-09-29T17:38:22.601Z,8.30
2022-09-29T17:43:28.605Z,8.30
2022-09-29T17:48:36.033Z,8.10
2022-09-29T17:53:41.834Z,8.20
2022-09-29T17:58:47.332Z,8.20
2022-09-29T18:18:35.177Z,7.90
2022-09-29T18:23:39.956Z,7.90
2022-09-29T18:28:46.881Z,7.80
2022-09-29T18:33:52.255Z,7.80
2022-09-29T18:38:57.623Z,7.50
2022-09-29T18:44:06.435Z,7.70
2022-09-29T18:49:15.505Z,7.70
2022-09-29T18:54:20.609Z,7.30
2022-09-29T18:59:26.204Z,7.30
2022-09-29T19:04:32.549Z,7.40
2022-09-29T19:09:37.651Z,7.50
2022-09-29T19:14:44.262Z,7.30
2022-09-29T19:19:51.333Z,7.20
2022-09-29T19:24:56.694Z,6.90
2022-09-29T19:30:04.649Z,6.80
2022-09-29T19:35:12.668Z,7.00
2022-09-29T19:40:22.540Z,7.00
2022-09-29T19:45:28.930Z,6.60
2022-09-29T19:50:53.319Z,6.70
2022-09-29T19:55:59.980Z,6.50
2022-09-29T20:01:06.763Z,6.60
2022-09-29T20:06:12.461Z,6.50
2022-09-29T20:11:18.279Z,6.30
2022-09-29T20:16:23.983Z,6.40
2022-09-29T20:21:30.711Z,6.20
2022-09-29T20:26:36.093Z,6.00
2022-09-29T20:31:41.106Z,6.10
2022-09-29T20:36:52.235Z,6.20
2022-09-29T20:41:55.372Z,6.30
2022-09-29T20:47:00.810Z,5.90
2022-09-29T20:52:06.365Z,6.10
2022-09-29T20:57:11.636Z,6.00
2022-09-29T21:02:16.882Z,6.00
2022-09-29T21:07:36.937Z,5.80
2022-09-29T21:12:42.170Z,5.70
2022-09-29T21:17:47.065Z,5.80
2022-09-29T21:22:52.417Z,5.70
2022-09-29T21:27:59.580Z,5.60
2022-09-29T21:33:04.843Z,5.50
2022-09-29T21:38:10.524Z,5.60
2022-09-29T21:43:16.001Z,5.50
2022-09-29T21:48:21.864Z,5.50
2022-09-29T21:53:27.229Z,5.50
2022-09-29T21:58:32.549Z,5.00
2022-09-29T22:03:43.539Z,5.00
2022-09-29T22:08:49.401Z,4.90
2022-09-29T22:13:56.410Z,4.70
2022-09-29T22:24:13.572Z,5.00
2022-09-29T22:29:18.703Z,5.00
2022-09-29T22:34:23.719Z,5.00
2022-09-29T22:39:29.198Z,5.00
2022-09-29T22:44:34.186Z,5.00
2022-09-29T22:49:39.599Z,5.00
2022-09-29T22:54:45.006Z,4.80
2022-09-29T22:59:50.467Z,4.70
2022-09-29T23:04:55.263Z,4.70
2022-09-29T23:10:00.207Z,4.80
2022-09-29T23:15:05.755Z,4.60
2022-09-29T23:20:12.149Z,4.50
2022-09-29T23:25:17.447Z,4.80
2022-09-29T23:30:23.323Z,4.30
2022-09-29T23:35:29.003Z,3.70
2022-09-29T23:40:33.913Z,3.90
2022-09-29T23:45:39.914Z,4.20
2022-09-29T23:50:45.753Z,4.20
2022-09-29T23:55:51.470Z,4.10
